Time;durP1;ratioP1;P1;durP2;ratioP2;P2;SDS_P1;SDS_P2;PMS_P1;PMS_P2;Temp;Humidity;BMP_temperature;BMP_pressure;BME280_temperature;BME280_humidity;BME280_pressure;Samples;Min_cycle;Max_cycle;Signal;HPM_P1;HPM_P2
2022/12/25 00:02:02;;;;;;;12.50;4.60;;;8.60;91.20;;;;;;5062920;28;20406;-59
2022/12/25 00:04:29;;;;;;;9.27;3.88;;;8.70;91.20;;;;;;5068205;28;20102;-59
2022/12/25 00:06:58;;;;;;;12.82;4.05;;;8.60;91.20;;;;;;5067532;28;20056;-59
2022/12/25 00:09:25;;;;;;;12.20;4.18;;;8.70;91.20;;;;;;5066156;28;20051;-62
2022/12/25 00:11:51;;;;;;;7.35;3.65;;;8.60;91.20;;;;;;5064487;28;20048;-63
2022/12/25 00:14:20;;;;;;;11.73;4.03;;;8.70;91.20;;;;;;5066499;28;20048;-63
2022/12/25 00:16:47;;;;;;;9.98;3.55;;;8.70;91.20;;;;;;5061916;28;20045;-63
2022/12/25 00:19:13;;;;;;;10.38;4.20;;;8.60;91.20;;;;;;5062254;28;20040;-63
2022/12/25 00:21:40;;;;;;;9.93;3.90;;;8.70;91.20;;;;;;5058826;28;20052;-63
2022/12/25 00:24:07;;;;;;;8.80;3.47;;;8.70;91.20;;;;;;5065575;28;20802;-63
2022/12/25 00:26:34;;;;;;;11.40;3.92;;;8.70;91.20;;;;;;5066291;28;20127;-62
2022/12/25 00:29:01;;;;;;;11.70;4.28;;;8.70;91.20;;;;;;5065233;28;20406;-62
2022/12/25 00:31:29;;;;;;;9.70;3.95;;;8.60;91.20;;;;;;5066834;28;20056;-63
2022/12/25 00:33:56;;;;;;;8.73;3.92;;;8.70;91.20;;;;;;5064629;28;20482;-64
2022/12/25 00:36:23;;;;;;;7.80;3.72;;;8.60;91.20;;;;;;5064846;28;20043;-66
2022/12/25 00:38:50;;;;;;;11.05;4.05;;;8.60;91.30;;;;;;5062076;28;20075;-66
2022/12/25 00:42:17;;;;;;;8.88;3.45;;;8.60;91.30;;;;;;5060358;28;20044;-65
2022/12/25 00:44:08;;;;;;;8.52;3.22;;;8.60;91.30;;;;;;5049046;28;20041;-66
2022/12/25 00:46:36;;;;;;;7.65;3.33;;;8.60;91.20;;;;;;5048935;28;20045;-60
2022/12/25 00:49:03;;;;;;;9.82;3.30;;;8.60;91.30;;;;;;5052185;28;20132;-60
2022/12/25 00:51:30;;;;;;;9.90;3.72;;;8.60;91.30;;;;;;5050273;28;20060;-61
2022/12/25 00:53:57;;;;;;;8.50;3.33;;;8.60;91.30;;;;;;5049167;28;20060;-60
2022/12/25 00:56:25;;;;;;;8.23;3.28;;;8.60;91.30;;;;;;5049754;28;20517;-60
2022/12/25 00:58:52;;;;;;;10.13;3.75;;;8.60;91.30;;;;;;5052830;28;20052;-60
2022/12/25 01:01:18;;;;;;;9.20;2.92;;;8.70;91.10;;;;;;5053113;28;20048;-63
2022/12/25 01:03:47;;;;;;;7.50;3.30;;;8.70;91.20;;;;;;5052699;28;20048;-63
2022/12/25 01:06:13;;;;;;;8.05;3.50;;;8.60;91.30;;;;;;5052052;28;20131;-63
2022/12/25 01:10:21;;;;;;;10.70;4.10;;;8.60;91.30;;;;;;5048664;28;20482;-63
2022/12/25 01:11:30;;;;;;;9.80;4.30;;;8.60;91.30;;;;;;5048502;28;20056;-62
2022/12/25 01:13:57;;;;;;;11.40;3.88;;;8.70;91.20;;;;;;5053520;28;20057;-62
2022/12/25 01:16:24;;;;;;;10.02;3.63;;;8.70;91.30;;;;;;5051725;28;20049;-64
2022/12/25 01:18:53;;;;;;;9.93;3.92;;;8.60;91.30;;;;;;5051991;28;20057;-64
2022/12/25 01:21:21;;;;;;;11.65;4.38;;;8.70;91.30;;;;;;5051321;28;20049;-62
2022/12/25 01:23:49;;;;;;;11.90;3.83;;;8.70;91.20;;;;;;5050236;28;20138;-64
2022/12/25 01:26:18;;;;;;;11.40;4.30;;;8.60;91.30;;;;;;5050690;28;20045;-62
2022/12/25 01:28:45;;;;;;;11.13;4.65;;;8.60;91.40;;;;;;5052467;28;20057;-63
2022/12/25 01:31:14;;;;;;;9.10;3.75;;;8.60;91.40;;;;;;5045653;28;20049;-64
2022/12/25 01:33:42;;;;;;;8.77;4.05;;;8.60;91.50;;;;;;5051579;28;20041;-63
2022/12/25 01:36:15;;;;;;;8.93;4.32;;;8.70;91.40;;;;;;5052946;28;20063;-63
2022/12/25 01:38:42;;;;;;;9.23;3.95;;;8.70;91.40;;;;;;5052372;28;20068;-63
2022/12/25 01:41:10;;;;;;;9.13;3.47;;;8.60;91.40;;;;;;5051375;28;20441;-63
2022/12/25 01:43:58;;;;;;;8.60;4.10;;;8.60;91.50;;;;;;5056368;28;20179;-63
2022/12/25 01:46:25;;;;;;;9.23;3.72;;;8.60;91.50;;;;;;5052094;28;20044;-63
2022/12/25 01:48:53;;;;;;;9.68;4.10;;;8.60;91.40;;;;;;5055964;28;20044;-61
2022/12/25 01:51:25;;;;;;;10.63;3.72;;;8.60;91.40;;;;;;5046561;28;20063;-65
2022/12/25 01:53:52;;;;;;;10.02;3.58;;;8.70;91.40;;;;;;5052470;28;20191;-65
2022/12/25 01:56:20;;;;;;;9.20;3.75;;;8.70;91.30;;;;;;5048430;28;20041;-65
2022/12/25 01:58:47;;;;;;;8.45;3.85;;;8.70;91.40;;;;;;5048485;28;20310;-65
2022/12/25 02:01:14;;;;;;;9.63;3.92;;;8.70;91.40;;;;;;5048595;28;20047;-65
2022/12/25 02:03:41;;;;;;;9.95;3.67;;;8.60;91.40;;;;;;5051032;28;20049;-65
2022/12/25 02:06:09;;;;;;;9.75;3.75;;;8.60;91.40;;;;;;5051487;28;20055;-66
2022/12/25 02:08:38;;;;;;;10.25;3.90;;;8.60;91.40;;;;;;5057462;28;20048;-66
2022/12/25 02:11:05;;;;;;;8.13;3.78;;;8.60;91.40;;;;;;5053735;28;20053;-62
2022/12/25 02:13:32;;;;;;;8.02;3.72;;;8.60;91.40;;;;;;5058400;28;20052;-63
2022/12/25 02:16:06;;;;;;;10.60;3.95;;;8.60;91.40;;;;;;5054666;28;20053;-63
2022/12/25 02:18:42;;;;;;;11.05;3.95;;;8.60;91.50;;;;;;5055411;28;20044;-63
2022/12/25 02:21:37;;;;;;;11.13;4.00;;;8.60;91.50;;;;;;5051513;28;20784;-60
2022/12/25 02:24:27;;;;;;;10.38;3.78;;;8.60;91.50;;;;;;5050625;28;20045;-60
2022/12/25 02:27:14;;;;;;;8.77;3.53;;;8.60;91.50;;;;;;5057559;28;20041;-65
2022/12/25 02:29:49;;;;;;;10.10;3.83;;;8.60;91.50;;;;;;5055819;28;20059;-65
2022/12/25 02:32:23;;;;;;;10.75;3.88;;;8.60;91.60;;;;;;5047752;28;20055;-61
2022/12/25 02:34:53;;;;;;;8.40;3.83;;;8.60;91.50;;;;;;5055395;28;20060;-62
2022/12/25 02:37:26;;;;;;;9.43;3.70;;;8.60;91.50;;;;;;5053638;28;20045;-61
2022/12/25 02:39:59;;;;;;;10.93;3.55;;;8.60;91.50;;;;;;5056697;28;20443;-61
2022/12/25 03:07:52;;;;;;;8.35;3.10;;;8.60;91.60;;;;;;5065551;28;20040;-58
2022/12/25 03:13:11;;;;;;;7.60;3.50;;;8.60;91.40;;;;;;5068314;28;20056;-58
2022/12/25 03:18:28;;;;;;;11.18;4.10;;;8.60;91.40;;;;;;5068226;28;20513;-62
2022/12/25 03:31:10;;;;;;;9.68;4.57;;;8.60;91.50;;;;;;5064130;28;20044;-67
2022/12/25 03:32:09;;;;;;;10.30;5.30;;;8.60;91.60;;;;;;5070053;28;20081;-63
2022/12/25 04:36:30;;;;;;;7.43;3.40;;;8.60;91.80;;;;;;5063751;28;20064;-59
2022/12/25 04:38:57;;;;;;;7.90;3.42;;;8.60;91.80;;;;;;5060412;28;20044;-59
2022/12/25 04:41:25;;;;;;;8.18;4.18;;;8.60;91.80;;;;;;5066969;28;20056;-59
2022/12/25 04:43:52;;;;;;;8.95;3.75;;;8.60;91.80;;;;;;5065213;28;20044;-57
2022/12/25 04:46:19;;;;;;;8.38;3.95;;;8.60;91.80;;;;;;5061252;28;20041;-58
2022/12/25 04:48:46;;;;;;;8.13;3.65;;;8.60;91.80;;;;;;5065299;28;20045;-58
2022/12/25 04:51:15;;;;;;;10.02;4.00;;;8.60;91.80;;;;;;5066837;28;20041;-60
2022/12/25 04:53:42;;;;;;;9.68;4.25;;;8.60;91.80;;;;;;5062037;28;20105;-60
2022/12/25 04:56:09;;;;;;;11.25;4.63;;;8.60;91.70;;;;;;5066936;28;20102;-62
2022/12/25 04:58:37;;;;;;;9.10;4.25;;;8.60;91.70;;;;;;5066440;28;20045;-61
2022/12/25 05:01:05;;;;;;;9.32;3.80;;;8.60;91.80;;;;;;5067094;28;20052;-57
2022/12/25 05:03:32;;;;;;;10.50;4.18;;;8.60;91.80;;;;;;5065083;28;20057;-59
2022/12/25 05:05:59;;;;;;;10.30;4.35;;;8.60;91.80;;;;;;5066423;28;20148;-58
2022/12/25 05:08:27;;;;;;;8.43;3.75;;;8.60;91.80;;;;;;5065794;28;20063;-59
2022/12/25 05:10:54;;;;;;;9.65;4.35;;;8.60;91.90;;;;;;5063998;28;20133;-61
2022/12/25 05:13:23;;;;;;;9.05;3.83;;;8.60;91.90;;;;;;5062055;28;20084;-61
2022/12/25 05:15:52;;;;;;;7.93;3.58;;;8.60;91.90;;;;;;5062459;28;20071;-60
2022/12/25 05:18:19;;;;;;;8.93;3.63;;;8.60;91.90;;;;;;5063886;28;20127;-60
2022/12/25 05:20:52;;;;;;;9.65;3.75;;;8.60;91.90;;;;;;5061355;28;20052;-64
2022/12/25 05:23:19;;;;;;;9.82;3.97;;;8.60;91.90;;;;;;5062670;28;20101;-64
2022/12/25 05:25:46;;;;;;;10.77;4.10;;;8.60;91.80;;;;;;5064101;28;20045;-66
2022/12/25 05:28:13;;;;;;;12.48;4.07;;;8.60;91.80;;;;;;5064377;28;20044;-65
2022/12/25 05:30:40;;;;;;;8.23;4.18;;;8.60;91.80;;;;;;5062072;28;20040;-58
2022/12/25 05:33:08;;;;;;;8.95;4.05;;;8.60;91.60;;;;;;5064930;28;20057;-59
2022/12/25 05:35:36;;;;;;;10.43;4.20;;;8.70;91.60;;;;;;5064351;28;20053;-65
2022/12/25 05:38:03;;;;;;;10.80;3.95;;;8.70;91.50;;;;;;5061927;28;20090;-66
2022/12/25 05:40:30;;;;;;;10.00;3.33;;;8.70;91.70;;;;;;5062526;28;20048;-65
2022/12/25 05:42:59;;;;;;;7.93;4.03;;;8.70;91.60;;;;;;5064852;28;20041;-65
2022/12/25 05:45:26;;;;;;;8.25;3.45;;;8.70;91.50;;;;;;5068310;28;20057;-60
2022/12/25 05:47:52;;;;;;;10.77;3.10;;;8.70;91.50;;;;;;5064086;28;20036;-61
2022/12/25 05:50:21;;;;;;;9.13;3.10;;;8.70;91.60;;;;;;5063273;28;20131;-60
2022/12/25 05:52:48;;;;;;;7.45;2.95;;;8.70;91.50;;;;;;5066320;28;20048;-58
2022/12/25 05:55:18;;;;;;;7.85;3.25;;;8.70;91.40;;;;;;5067018;28;20491;-58
2022/12/25 05:57:45;;;;;;;7.78;2.80;;;8.70;91.50;;;;;;5063485;28;20052;-58
2022/12/25 06:00:12;;;;;;;10.15;3.33;;;8.70;91.70;;;;;;5066452;28;20041;-58
2022/12/25 06:02:40;;;;;;;7.00;2.63;;;8.70;91.70;;;;;;5065709;28;20044;-58
2022/12/25 06:05:08;;;;;;;8.93;2.78;;;8.70;91.50;;;;;;5066153;28;20052;-58
2022/12/25 06:07:36;;;;;;;8.57;3.10;;;8.70;91.40;;;;;;5065455;28;20068;-58
2022/12/25 06:10:04;;;;;;;9.40;2.75;;;8.70;91.60;;;;;;5066204;28;20420;-58
2022/12/25 06:12:31;;;;;;;10.00;3.05;;;8.70;91.50;;;;;;5067182;28;20059;-66
2022/12/25 06:14:57;;;;;;;10.40;3.53;;;8.70;91.60;;;;;;5067550;28;20048;-65
2022/12/25 06:17:25;;;;;;;6.65;2.88;;;8.70;91.60;;;;;;5064004;28;20056;-65
2022/12/25 06:19:52;;;;;;;8.00;2.70;;;8.70;91.60;;;;;;5064873;28;20044;-66
2022/12/25 06:22:19;;;;;;;6.85;2.80;;;8.70;91.50;;;;;;5066437;28;20056;-65
2022/12/25 06:24:47;;;;;;;9.60;3.42;;;8.70;91.50;;;;;;5063420;28;20703;-67
2022/12/25 06:27:15;;;;;;;6.43;2.65;;;8.70;91.50;;;;;;5065772;28;20059;-63
2022/12/25 06:29:44;;;;;;;7.22;2.85;;;8.70;91.50;;;;;;5063856;28;20048;-66
2022/12/25 06:32:11;;;;;;;8.68;3.58;;;8.70;91.50;;;;;;5061021;28;20052;-66
2022/12/25 06:34:38;;;;;;;6.75;3.00;;;8.70;91.40;;;;;;5062049;28;20058;-65
2022/12/25 06:37:05;;;;;;;9.07;3.28;;;8.70;91.40;;;;;;5064412;28;20060;-66
2022/12/25 06:39:33;;;;;;;7.00;3.55;;;8.70;91.40;;;;;;5062511;28;20040;-65
2022/12/25 06:42:07;;;;;;;7.70;2.85;;;8.70;91.30;;;;;;5060330;28;20056;-62
2022/12/25 06:44:34;;;;;;;7.72;3.30;;;8.70;91.40;;;;;;5063477;28;20048;-63
2022/12/25 06:47:01;;;;;;;9.35;3.50;;;8.70;91.60;;;;;;5062958;28;20072;-63
2022/12/25 06:49:31;;;;;;;6.68;2.97;;;8.70;91.70;;;;;;5064009;28;20074;-63
2022/12/25 06:51:58;;;;;;;7.75;3.17;;;8.70;91.50;;;;;;5065124;28;20048;-64
2022/12/25 06:54:25;;;;;;;8.55;3.50;;;8.70;91.50;;;;;;5068746;28;20056;-63
2022/12/25 06:56:51;;;;;;;8.55;3.45;;;8.70;91.50;;;;;;5068486;28;20040;-63
2022/12/25 06:59:20;;;;;;;8.13;3.05;;;8.70;91.50;;;;;;5068531;28;20601;-63
2022/12/25 07:01:48;;;;;;;6.85;3.35;;;8.80;91.50;;;;;;5066465;28;20060;-63
2022/12/25 07:04:19;;;;;;;7.30;3.28;;;8.80;91.50;;;;;;5064533;28;20048;-62
2022/12/25 07:06:46;;;;;;;;;;;8.70;91.30;;;;;;5068059;28;20048;-60
2022/12/25 07:09:13;;;;;;;7.30;3.20;;;8.80;91.40;;;;;;5067766;28;19931;-60
2022/12/25 07:11:39;;;;;;;7.57;3.08;;;8.80;91.60;;;;;;5064075;28;20048;-60
2022/12/25 07:14:07;;;;;;;9.73;3.58;;;8.80;91.50;;;;;;5070975;28;20120;-60
2022/12/25 07:16:35;;;;;;;6.53;3.67;;;8.80;91.50;;;;;;5065248;28;20056;-61
2022/12/25 07:19:02;;;;;;;10.68;3.88;;;8.80;91.40;;;;;;5064530;28;20037;-59
2022/12/25 07:21:29;;;;;;;7.82;3.92;;;8.80;91.50;;;;;;5065839;28;20052;-61
2022/12/25 07:23:56;;;;;;;7.57;3.42;;;8.90;91.40;;;;;;5069257;28;20037;-61
2022/12/25 07:26:23;;;;;;;9.40;4.40;;;8.90;91.40;;;;;;5066063;28;20414;-61
2022/12/25 07:28:50;;;;;;;6.47;3.42;;;8.80;91.30;;;;;;5068103;28;20059;-60
2022/12/25 07:31:17;;;;;;;7.28;3.60;;;8.90;91.40;;;;;;5070862;28;20044;-61
2022/12/25 07:33:46;;;;;;;7.38;3.90;;;8.90;91.30;;;;;;5067412;28;20072;-61
2022/12/25 07:36:14;;;;;;;8.85;4.13;;;8.90;91.40;;;;;;5063510;28;20620;-60
2022/12/25 07:38:42;;;;;;;7.50;4.22;;;8.90;91.40;;;;;;5066731;28;20041;-61
2022/12/25 07:41:09;;;;;;;8.63;4.05;;;8.90;91.20;;;;;;5063108;28;20040;-64
2022/12/25 07:43:36;;;;;;;8.15;3.95;;;8.90;91.30;;;;;;5051421;28;20202;-65
2022/12/25 07:46:03;;;;;;;8.25;4.32;;;8.90;91.30;;;;;;5052965;28;20037;-67
2022/12/25 07:48:31;;;;;;;9.20;4.18;;;8.90;91.30;;;;;;5056304;28;20488;-66
2022/12/25 07:51:02;;;;;;;8.43;4.00;;;8.90;91.30;;;;;;5052434;28;20045;-59
2022/12/25 07:53:29;;;;;;;12.55;4.80;;;8.90;91.30;;;;;;5049243;28;20060;-60
2022/12/25 07:55:58;;;;;;;7.05;4.53;;;8.90;91.20;;;;;;5054740;28;20517;-61
2022/12/25 07:58:25;;;;;;;7.82;4.03;;;9.00;91.30;;;;;;5055362;28;20415;-59
2022/12/25 08:00:52;;;;;;;7.28;4.60;;;9.00;91.30;;;;;;5052913;28;20136;-60
2022/12/25 08:03:21;;;;;;;9.90;4.78;;;9.00;91.30;;;;;;5053657;28;20047;-60
2022/12/25 08:05:48;;;;;;;9.30;4.32;;;9.00;91.20;;;;;;5051062;28;20044;-59
2022/12/25 08:08:17;;;;;;;7.53;4.30;;;9.00;91.30;;;;;;5053690;28;20047;-61
2022/12/25 08:10:47;;;;;;;5.57;3.53;;;9.00;91.30;;;;;;5054773;28;20479;-59
2022/12/25 08:13:15;;;;;;;8.70;3.97;;;9.00;91.20;;;;;;5050372;28;20062;-60
2022/12/25 08:15:42;;;;;;;8.82;4.00;;;9.00;91.20;;;;;;5053369;28;20040;-65
2022/12/25 08:18:09;;;;;;;6.40;3.78;;;9.00;91.10;;;;;;5051280;28;20060;-66
2022/12/25 08:20:36;;;;;;;6.38;3.30;;;9.00;91.20;;;;;;5055248;28;20103;-65
2022/12/25 08:23:04;;;;;;;8.05;3.60;;;9.10;91.20;;;;;;5048779;28;20044;-65
2022/12/25 08:25:33;;;;;;;7.00;3.80;;;9.10;91.20;;;;;;5054589;28;20056;-66
2022/12/25 08:28:00;;;;;;;7.95;3.92;;;9.10;91.00;;;;;;5051764;28;20045;-66
2022/12/25 08:30:27;;;;;;;8.43;3.75;;;9.10;91.10;;;;;;5053469;28;20052;-67
2022/12/25 08:32:54;;;;;;;6.45;3.40;;;9.10;91.10;;;;;;5052878;28;20511;-66
2022/12/25 08:35:21;;;;;;;6.88;3.55;;;9.10;91.10;;;;;;5053997;28;20045;-65
2022/12/25 08:37:48;;;;;;;7.30;3.35;;;9.10;91.10;;;;;;5053882;28;20045;-66
2022/12/25 08:40:15;;;;;;;7.35;3.50;;;9.20;91.00;;;;;;5051201;28;20045;-66
2022/12/25 08:42:43;;;;;;;7.47;3.25;;;9.20;91.00;;;;;;5051254;28;20041;-65
2022/12/25 08:45:11;;;;;;;7.63;3.85;;;9.20;91.00;;;;;;5049826;28;20053;-65
2022/12/25 08:47:38;;;;;;;6.85;3.80;;;9.20;90.90;;;;;;5053814;28;20064;-65
2022/12/25 08:50:06;;;;;;;8.43;3.38;;;9.20;90.80;;;;;;5052991;28;20049;-65
2022/12/25 08:52:33;;;;;;;7.03;3.65;;;9.20;90.90;;;;;;5050868;28;20045;-65
2022/12/25 08:55:00;;;;;;;7.55;3.50;;;9.30;90.80;;;;;;5055094;28;20051;-65
2022/12/25 08:57:27;;;;;;;7.00;3.47;;;9.30;90.70;;;;;;5056782;28;20056;-65
2022/12/25 08:59:55;;;;;;;7.20;3.40;;;9.40;90.60;;;;;;5054076;28;20415;-64
2022/12/25 09:02:22;;;;;;;5.93;3.72;;;9.40;90.60;;;;;;5057040;28;20076;-61
2022/12/25 09:04:49;;;;;;;5.72;3.10;;;9.40;90.60;;;;;;5036524;28;20067;-62
2022/12/25 09:07:16;;;;;;;6.18;2.95;;;9.40;90.60;;;;;;5053620;28;20053;-61
2022/12/25 09:09:43;;;;;;;6.82;3.38;;;9.40;90.50;;;;;;5052651;28;20114;-62
2022/12/25 09:12:10;;;;;;;6.88;3.35;;;9.40;90.40;;;;;;5053439;28;20045;-62
2022/12/25 09:14:37;;;;;;;6.65;3.00;;;9.50;90.40;;;;;;5050838;28;20053;-62
2022/12/25 09:17:06;;;;;;;7.13;3.00;;;9.50;90.30;;;;;;5051497;28;20488;-60
2022/12/25 09:19:33;;;;;;;6.93;3.05;;;9.60;90.30;;;;;;5053691;28;20048;-60
2022/12/25 09:22:00;;;;;;;7.15;3.08;;;9.60;90.20;;;;;;5054519;28;20048;-60
2022/12/25 09:24:27;;;;;;;7.18;3.70;;;9.70;90.10;;;;;;5049501;28;20506;-61
2022/12/25 09:26:54;;;;;;;5.15;2.50;;;9.60;90.00;;;;;;5050826;28;20048;-60
2022/12/25 09:29:21;;;;;;;7.90;3.00;;;9.70;90.00;;;;;;5051206;28;20048;-60
2022/12/25 09:31:48;;;;;;;6.15;2.40;;;9.70;90.00;;;;;;5045448;28;20060;-61
2022/12/25 09:34:16;;;;;;;4.18;2.38;;;9.70;90.00;;;;;;5051494;28;20057;-60
2022/12/25 09:36:43;;;;;;;6.50;2.72;;;9.60;89.90;;;;;;5050211;28;20052;-65
2022/12/25 09:39:09;;;;;;;5.20;2.92;;;9.60;89.90;;;;;;5053619;28;20054;-67
2022/12/25 09:41:44;;;;;;;5.18;2.63;;;9.60;89.90;;;;;;5058863;28;20052;-63
2022/12/25 09:44:18;;;;;;;6.63;2.80;;;9.60;89.90;;;;;;5065388;28;20056;-61
2022/12/25 09:46:49;;;;;;;4.80;2.60;;;9.70;89.90;;;;;;5065792;28;20057;-66
2022/12/25 09:49:22;;;;;;;6.28;3.00;;;9.70;89.80;;;;;;5067720;28;20044;-58
2022/12/25 09:51:54;;;;;;;5.30;3.17;;;9.70;89.70;;;;;;5063673;28;20475;-57
2022/12/25 09:54:29;;;;;;;7.75;3.25;;;9.70;89.80;;;;;;5067344;28;20064;-57
2022/12/25 09:56:56;;;;;;;7.25;3.22;;;9.70;89.70;;;;;;5065338;28;20112;-58
2022/12/25 09:59:26;;;;;;;5.55;2.95;;;9.70;89.80;;;;;;5065374;28;20925;-57
2022/12/25 10:02:10;;;;;;;6.90;3.13;;;9.80;89.70;;;;;;5064250;28;20121;-56
2022/12/25 10:04:54;;;;;;;7.15;3.10;;;9.80;89.60;;;;;;5065717;28;20041;-65
2022/12/25 10:07:34;;;;;;;6.05;3.17;;;9.80;89.60;;;;;;5066766;28;20048;-59
2022/12/25 10:10:12;;;;;;;5.63;2.88;;;9.80;89.70;;;;;;5063011;28;20523;-60
2022/12/25 10:12:51;;;;;;;6.47;3.05;;;9.80;89.70;;;;;;5063268;28;20059;-61
2022/12/25 10:15:32;;;;;;;4.57;2.88;;;9.80;89.70;;;;;;5062729;28;20174;-60
2022/12/25 10:18:33;;;;;;;6.53;3.22;;;9.80;89.70;;;;;;5066523;28;20445;-60
2022/12/25 10:21:04;;;;;;;5.30;3.00;;;9.80;89.60;;;;;;5015435;28;20048;-61
2022/12/25 10:23:35;;;;;;;7.47;3.50;;;9.80;89.60;;;;;;5066793;28;20041;-59
2022/12/25 10:26:03;;;;;;;4.85;2.80;;;9.80;89.60;;;;;;5065640;28;20437;-60
2022/12/25 10:28:37;;;;;;;7.38;3.05;;;9.80;89.40;;;;;;5068673;28;20064;-60
2022/12/25 10:31:18;;;;;;;6.10;2.83;;;9.80;89.40;;;;;;5066646;28;20037;-58
2022/12/25 10:33:44;;;;;;;5.43;2.60;;;9.80;89.50;;;;;;5066201;28;20044;-57
2022/12/25 10:36:13;;;;;;;7.07;3.17;;;9.80;89.30;;;;;;5066756;28;20522;-58
2022/12/25 10:38:40;;;;;;;5.57;2.90;;;9.80;89.20;;;;;;5064355;28;20064;-58
2022/12/25 10:41:18;;;;;;;5.97;3.20;;;9.80;89.20;;;;;;5069223;28;20052;-65
2022/12/25 10:43:49;;;;;;;6.72;3.03;;;9.80;89.10;;;;;;5070730;28;20470;-65
2022/12/25 10:46:17;;;;;;;6.28;3.05;;;9.80;89.10;;;;;;5065281;28;20687;-64
2022/12/25 10:48:47;;;;;;;6.93;3.15;;;9.90;89.10;;;;;;5067953;28;20402;-65
2022/12/25 10:51:25;;;;;;;;;;;9.90;89.00;;;;;;5070615;28;20041;-62
2022/12/25 10:53:52;;;;;;;5.35;2.88;;;9.90;88.90;;;;;;5069111;28;19920;-63
2022/12/25 10:56:20;;;;;;;6.22;3.60;;;9.90;89.00;;;;;;5066996;28;20040;-62
2022/12/25 10:58:46;;;;;;;5.22;2.85;;;9.90;88.90;;;;;;5069787;28;20483;-62
2022/12/25 11:01:14;;;;;;;5.35;2.70;;;9.90;88.80;;;;;;5066847;28;20149;-62
2022/12/25 11:03:45;;;;;;;7.00;3.13;;;9.90;88.70;;;;;;5068517;28;20133;-62
2022/12/25 11:06:24;;;;;;;5.10;2.78;;;9.90;88.70;;;;;;5065619;28;20056;-63
2022/12/25 11:08:54;;;;;;;6.28;2.97;;;10.00;88.80;;;;;;5067169;28;20144;-62
2022/12/25 11:11:22;;;;;;;6.70;3.13;;;10.00;88.70;;;;;;5065697;28;20079;-62
2022/12/25 11:13:52;;;;;;;5.43;2.58;;;10.00;88.60;;;;;;5064612;28;20040;-62
2022/12/25 11:16:29;;;;;;;5.13;2.63;;;10.00;88.70;;;;;;5067644;28;20067;-62
2022/12/25 11:18:57;;;;;;;4.70;2.60;;;10.00;88.50;;;;;;5067862;28;20145;-62
2022/12/25 11:21:27;;;;;;;5.45;2.88;;;10.00;88.40;;;;;;5068604;28;20056;-62
2022/12/25 11:23:58;;;;;;;5.00;2.83;;;10.10;88.40;;;;;;5067297;28;20047;-62
2022/12/25 11:26:26;;;;;;;7.30;2.95;;;10.10;88.40;;;;;;5067907;28;20048;-61
2022/12/25 11:28:54;;;;;;;4.68;2.58;;;10.10;88.30;;;;;;5067813;28;20071;-61
2022/12/25 11:31:29;;;;;;;5.57;2.80;;;10.10;88.40;;;;;;5065429;28;20049;-63
2022/12/25 11:34:03;;;;;;;5.78;2.80;;;10.10;88.40;;;;;;5067107;28;20052;-61
2022/12/25 11:36:41;;;;;;;3.92;2.50;;;10.10;88.20;;;;;;5064404;28;20491;-61
2022/12/25 11:39:17;;;;;;;5.32;2.78;;;10.10;88.10;;;;;;5067168;28;20059;-62
2022/12/25 11:41:45;;;;;;;5.55;2.78;;;10.10;88.20;;;;;;5068202;28;20052;-63
2022/12/25 11:44:26;;;;;;;5.53;2.97;;;10.10;88.00;;;;;;5070476;28;20063;-63
2022/12/25 11:46:55;;;;;;;5.60;3.00;;;10.10;87.90;;;;;;5065849;28;20102;-62
2022/12/25 11:49:23;;;;;;;5.38;2.30;;;10.20;87.90;;;;;;5064264;28;20053;-64
2022/12/25 11:51:55;;;;;;;5.13;2.78;;;10.20;87.80;;;;;;5067184;28;20119;-63
2022/12/25 11:54:26;;;;;;;4.88;2.47;;;10.20;87.80;;;;;;5066770;28;20063;-64
2022/12/25 11:56:54;;;;;;;5.78;2.35;;;10.20;87.70;;;;;;5067948;28;20067;-64
2022/12/25 11:59:25;;;;;;;3.60;2.20;;;10.30;87.60;;;;;;5068393;28;20108;-63
2022/12/25 12:01:56;;;;;;;4.72;2.38;;;10.30;87.80;;;;;;5066445;28;20040;-63
2022/12/25 12:04:27;;;;;;;5.68;2.05;;;10.30;87.60;;;;;;5067760;28;20040;-63
2022/12/25 12:07:00;;;;;;;4.25;2.30;;;10.30;87.70;;;;;;5064642;28;20075;-63
2022/12/25 12:09:38;;;;;;;4.75;2.10;;;10.30;87.80;;;;;;5066695;28;20487;-62
2022/12/25 12:12:11;;;;;;;4.60;2.08;;;10.30;87.70;;;;;;5068686;28;20037;-66
2022/12/25 12:14:47;;;;;;;5.00;2.13;;;10.30;87.90;;;;;;5067912;28;20048;-66
2022/12/25 12:17:16;;;;;;;5.15;1.80;;;10.30;87.90;;;;;;5069989;28;20063;-65
2022/12/25 12:19:43;;;;;;;5.07;1.88;;;10.30;87.80;;;;;;5068509;28;20056;-65
2022/12/25 12:22:25;;;;;;;3.90;2.00;;;10.30;87.90;;;;;;5065700;28;20597;-64
2022/12/25 12:24:58;;;;;;;3.97;1.70;;;10.30;87.70;;;;;;5064957;28;20519;-65
2022/12/25 12:27:31;;;;;;;3.97;2.13;;;10.30;87.70;;;;;;5069175;28;20078;-65
2022/12/25 12:29:59;;;;;;;4.38;2.00;;;10.30;87.70;;;;;;5061901;28;20041;-65
2022/12/25 12:32:36;;;;;;;4.22;1.73;;;10.30;87.70;;;;;;5061174;28;20052;-65
2022/12/25 12:35:15;;;;;;;5.80;2.13;;;10.40;87.60;;;;;;5062092;28;20048;-65
2022/12/25 12:37:46;;;;;;;3.72;1.88;;;10.40;87.50;;;;;;5064891;28;20053;-65
2022/12/25 12:40:28;;;;;;;5.35;2.00;;;10.40;87.60;;;;;;5065519;28;20052;-66
2022/12/25 12:42:55;;;;;;;4.63;2.08;;;10.40;87.50;;;;;;5063360;28;20055;-65
2022/12/25 12:45:26;;;;;;;5.47;2.10;;;10.40;87.40;;;;;;5064524;28;20121;-66
2022/12/25 12:47:53;;;;;;;3.72;2.00;;;10.40;87.40;;;;;;5062814;28;20037;-68
2022/12/25 12:50:35;;;;;;;6.90;2.15;;;10.40;87.40;;;;;;5066116;28;20625;-65
2022/12/25 12:53:26;;;;;;;4.53;2.33;;;10.40;87.60;;;;;;5065182;28;20048;-66
2022/12/25 12:55:54;;;;;;;4.90;1.92;;;10.40;87.40;;;;;;5068782;28;20407;-66
2022/12/25 12:58:31;;;;;;;4.10;2.10;;;10.40;87.30;;;;;;5065059;28;20052;-66
2022/12/25 13:01:11;;;;;;;6.28;2.20;;;10.40;87.40;;;;;;5067426;28;20098;-60
2022/12/25 13:03:57;;;;;;;6.72;2.40;;;10.40;87.40;;;;;;5065682;28;20045;-60
2022/12/25 13:06:31;;;;;;;5.82;2.55;;;10.40;87.50;;;;;;5060712;28;20045;-59
2022/12/25 13:09:12;;;;;;;4.88;2.13;;;10.40;87.50;;;;;;5064541;28;20052;-58
2022/12/25 13:11:41;;;;;;;5.65;2.60;;;10.40;87.50;;;;;;5066053;28;20098;-66
2022/12/25 13:14:15;;;;;;;5.45;2.22;;;10.40;87.50;;;;;;5064181;28;20632;-60
2022/12/25 13:16:44;;;;;;;5.72;2.33;;;10.40;87.50;;;;;;5060836;28;20041;-59
2022/12/25 13:19:14;;;;;;;6.55;2.40;;;10.50;87.40;;;;;;5066034;28;20131;-59
2022/12/25 13:21:51;;;;;;;5.85;2.35;;;10.40;87.50;;;;;;5063786;28;20048;-59
2022/12/25 13:24:21;;;;;;;4.53;1.90;;;10.40;87.60;;;;;;5066954;28;20040;-59
2022/12/25 13:26:48;;;;;;;5.07;2.35;;;10.50;87.50;;;;;;5066701;28;20372;-59
2022/12/25 13:29:35;;;;;;;4.50;2.30;;;10.50;87.50;;;;;;5063978;28;20040;-60
2022/12/25 13:32:04;;;;;;;3.55;1.92;;;10.50;87.60;;;;;;5061378;28;20052;-59
2022/12/25 13:34:32;;;;;;;5.30;2.38;;;10.50;87.60;;;;;;5067198;28;20051;-59
2022/12/25 13:37:06;;;;;;;5.05;2.08;;;10.50;87.60;;;;;;5064912;28;20052;-60
2022/12/25 13:39:36;;;;;;;5.25;2.08;;;10.50;87.70;;;;;;5064525;28;20045;-59
2022/12/25 13:42:05;;;;;;;5.20;2.20;;;10.50;87.70;;;;;;5055949;28;20064;-60
2022/12/25 13:44:42;;;;;;;4.32;2.15;;;10.50;87.70;;;;;;5055790;28;20045;-60
2022/12/25 13:47:17;;;;;;;4.38;2.20;;;10.50;87.80;;;;;;5054080;28;20045;-60
2022/12/25 13:49:45;;;;;;;4.53;2.10;;;10.40;87.60;;;;;;5048843;28;20130;-59
2022/12/25 13:52:14;;;;;;;3.97;1.90;;;10.40;87.70;;;;;;5050886;28;20053;-62
2022/12/25 13:54:53;;;;;;;4.80;2.13;;;10.40;87.80;;;;;;5057180;28;20041;-61
2022/12/25 13:57:26;;;;;;;3.88;1.95;;;10.40;87.90;;;;;;5057468;28;20053;-63
2022/12/25 13:59:53;;;;;;;5.25;2.10;;;10.30;87.80;;;;;;5055789;28;20048;-62
2022/12/25 14:02:24;;;;;;;4.63;1.77;;;10.30;88.10;;;;;;5057427;28;20052;-57
2022/12/25 14:04:51;;;;;;;4.05;2.17;;;10.30;87.90;;;;;;5061893;28;20394;-58
2022/12/25 14:07:22;;;;;;;3.67;2.10;;;10.30;87.80;;;;;;5060085;28;20036;-57
2022/12/25 14:09:54;;;;;;;3.90;1.90;;;10.30;87.80;;;;;;5056373;28;20383;-58
2022/12/25 14:12:22;;;;;;;11.45;6.47;;;10.30;88.00;;;;;;5054319;28;20687;-58
2022/12/25 14:14:51;;;;;;;21.08;12.88;;;10.30;87.90;;;;;;5057132;28;20049;-57
2022/12/25 14:17:18;;;;;;;22.17;12.85;;;10.30;88.00;;;;;;5060814;28;20045;-58
2022/12/25 14:19:45;;;;;;;18.25;11.70;;;10.20;87.90;;;;;;5056188;28;20056;-57
2022/12/25 14:22:20;;;;;;;13.60;8.68;;;10.30;88.20;;;;;;5060649;28;20037;-58
2022/12/25 14:24:47;;;;;;;11.70;7.20;;;10.20;88.60;;;;;;5061973;28;20095;-60
2022/12/25 14:27:20;;;;;;;10.40;6.30;;;10.20;88.20;;;;;;5058646;28;20057;-58
2022/12/25 14:29:49;;;;;;;12.50;5.70;;;10.20;88.20;;;;;;5061278;28;20053;-59
2022/12/25 14:32:18;;;;;;;8.55;5.13;;;10.20;88.20;;;;;;5060646;28;20041;-60
2022/12/25 14:34:47;;;;;;;7.65;4.53;;;10.20;88.30;;;;;;5050945;28;20056;-61
2022/12/25 14:37:17;;;;;;;9.48;4.75;;;10.20;88.40;;;;;;5053883;28;20059;-60
2022/12/25 14:39:46;;;;;;;8.00;4.35;;;10.10;88.30;;;;;;5045917;28;20052;-60
2022/12/25 14:42:21;;;;;;;6.95;4.25;;;10.10;88.50;;;;;;5058737;28;20045;-66
2022/12/25 14:45:00;;;;;;;6.20;3.67;;;10.10;88.50;;;;;;5059550;28;20163;-66
2022/12/25 14:47:27;;;;;;;7.32;4.10;;;10.10;88.40;;;;;;5059709;28;20048;-67
2022/12/25 14:49:54;;;;;;;6.60;4.28;;;10.10;88.40;;;;;;5061240;28;20041;-67